Terminal Aerodrome Forecast
Issued by NWS St Louis, MO

Home | Current Version | Previous Version | Text Only | Print | Product List | Glossary On
Versions: 1 2 3 4 5 6 7 8 9 10 11 12 13 14 15 16 17 18 19
000
FTUS43 KLSX 240900 AAA
TAFCOU
TAF AMD
KCOU 240905Z 2409/2506 31009KT 4SM BR OVC004
      TEMPO 2409/2413 1SM BR
     FM241500 30012G20KT P6SM -RASN OVC008
     FM242300 26010KT P6SM OVC008=

USA.gov is the U.S. government's official web portal to all federal, state and local government web resources and services.